עמוד ראשי
METAR-TAF:

METAR-TAF

שדות תעופה :

בלפאסט, צפון אירלנד

קו רוחב: 54-39N, קו אורך: 006-13W, גובה: 81מטר

תצפית מזג אוויר נוכחית

הדו"ח נערך לפני 11דקות, בשעה 00:50 UTC
רוח 4קשר מכיוון מזרח
טמפרטורת 11 צלסיוס
לחות 94%
לחץ 1013 hPa
ראות 10 קילומטר או יותר
מעונן בגובה 4900רגל

METAR: EGAA 210050Z AUTO 08004KT 9999 OVC049 11/10 Q1013

זמן: 02:01 (01:01 UTC)

תחזית

הדו"ח נערך לפני 2 שעות ו 3דקות, בשעה 22:58 UTC
תחזית בתוקף מ 21 ב 00 UTC עד 21 ב 24 UTC
רוח 6קשר מכיוון מזרח/דרום-מזרח
ראות 10 קילומטר או יותר
עננים פזורים בגובה 4500רגל
הסתברות 30% :
זמנית מ -
21 ב 12 UTC עד 21 ב 21 UTC
ראות: 3000מטר
ממטרי גשם כבדים, סופת רעמים, גשם כבד,

TAF: EGAA 202258Z 2100/2124 12006KT 9999 SCT045 PROB30 TEMPO 2112/2121 3000 +SHRA +TSRA

תצפיות ותחזיות מזג אוויר לגבי יותר מ- 4,000 שדות תעופה ברחבי העולם. דוחות METAR ו- TAF.

התחנות הזמינות מסומנות בנקודות צהובות ואדומות על גבי המפה.

העבר את העכבר לנקודה הצבעונית על מנת לראות את שם התחנה.

לאחר מכן, לחץ כדי לראות את תוכן ואת תחזיות מזג האוויר.

כדי לשנות את המפה: לחץ על הכפתורים הירוקים עם הפלוס השחור כדי להתקרב; על הכפתור הירוק עם המקף כדי להתרחק; או בחיצים הירוקים למפות סמוכות.


METAR-TAF: